sensor_id;sensor_type;location;lat;lon;timestamp;temperature;humidity
23231;DHT22;11784;49.818;8.632;2023-04-06T00:00:59;8.40;51.00
23231;DHT22;11784;49.818;8.632;2023-04-06T00:03:25;8.40;51.70
23231;DHT22;11784;49.818;8.632;2023-04-06T00:05:50;8.40;51.50
23231;DHT22;11784;49.818;8.632;2023-04-06T00:08:16;8.40;51.20
23231;DHT22;11784;49.818;8.632;2023-04-06T00:10:42;8.40;51.50
23231;DHT22;11784;49.818;8.632;2023-04-06T00:13:07;8.40;51.80
23231;DHT22;11784;49.818;8.632;2023-04-06T00:15:33;8.40;51.80
23231;DHT22;11784;49.818;8.632;2023-04-06T00:17:59;8.40;52.00
23231;DHT22;11784;49.818;8.632;2023-04-06T00:20:25;8.40;52.10
23231;DHT22;11784;49.818;8.632;2023-04-06T00:22:50;8.40;52.00
23231;DHT22;11784;49.818;8.632;2023-04-06T00:25:16;8.30;51.40
23231;DHT22;11784;49.818;8.632;2023-04-06T00:27:42;8.30;50.90
23231;DHT22;11784;49.818;8.632;2023-04-06T00:30:08;8.20;51.30
23231;DHT22;11784;49.818;8.632;2023-04-06T00:32:34;8.20;51.50
23231;DHT22;11784;49.818;8.632;2023-04-06T00:35:02;8.20;52.10
23231;DHT22;11784;49.818;8.632;2023-04-06T00:37:27;8.30;52.10
23231;DHT22;11784;49.818;8.632;2023-04-06T00:39:53;8.30;52.20
23231;DHT22;11784;49.818;8.632;2023-04-06T00:42:19;8.30;51.80
23231;DHT22;11784;49.818;8.632;2023-04-06T00:44:54;8.30;51.80
23231;DHT22;11784;49.818;8.632;2023-04-06T00:47:21;8.30;51.30
23231;DHT22;11784;49.818;8.632;2023-04-06T00:49:47;8.30;51.10
23231;DHT22;11784;49.818;8.632;2023-04-06T00:52:13;8.30;51.70
23231;DHT22;11784;49.818;8.632;2023-04-06T00:54:38;8.30;52.10
23231;DHT22;11784;49.818;8.632;2023-04-06T00:57:04;8.30;52.10
23231;DHT22;11784;49.818;8.632;2023-04-06T00:59:30;8.30;52.50
23231;DHT22;11784;49.818;8.632;2023-04-06T01:01:56;8.30;52.50
23231;DHT22;11784;49.818;8.632;2023-04-06T01:04:22;8.20;51.50
23231;DHT22;11784;49.818;8.632;2023-04-06T01:06:50;8.20;51.60
23231;DHT22;11784;49.818;8.632;2023-04-06T01:09:19;8.10;51.90
23231;DHT22;11784;49.818;8.632;2023-04-06T01:11:44;8.10;51.40
23231;DHT22;11784;49.818;8.632;2023-04-06T01:14:10;8.10;51.80
23231;DHT22;11784;49.818;8.632;2023-04-06T01:16:36;8.00;52.00
23231;DHT22;11784;49.818;8.632;2023-04-06T01:19:08;8.00;52.60
23231;DHT22;11784;49.818;8.632;2023-04-06T01:21:34;8.00;52.80
23231;DHT22;11784;49.818;8.632;2023-04-06T01:23:59;8.00;53.50
23231;DHT22;11784;49.818;8.632;2023-04-06T01:26:25;7.90;53.10
23231;DHT22;11784;49.818;8.632;2023-04-06T01:28:52;7.90;53.30
23231;DHT22;11784;49.818;8.632;2023-04-06T01:31:17;7.90;53.50
23231;DHT22;11784;49.818;8.632;2023-04-06T01:33:43;7.90;52.50
23231;DHT22;11784;49.818;8.632;2023-04-06T01:36:08;7.80;52.20
23231;DHT22;11784;49.818;8.632;2023-04-06T01:38:34;7.80;52.10
23231;DHT22;11784;49.818;8.632;2023-04-06T01:41:00;7.80;52.70
23231;DHT22;11784;49.818;8.632;2023-04-06T01:43:25;7.70;52.80
23231;DHT22;11784;49.818;8.632;2023-04-06T01:45:51;7.70;54.40
23231;DHT22;11784;49.818;8.632;2023-04-06T01:48:17;7.70;54.90
23231;DHT22;11784;49.818;8.632;2023-04-06T01:50:42;7.70;54.70
23231;DHT22;11784;49.818;8.632;2023-04-06T01:53:08;7.70;53.90
23231;DHT22;11784;49.818;8.632;2023-04-06T01:55:33;7.60;53.90
23231;DHT22;11784;49.818;8.632;2023-04-06T01:57:59;7.60;54.50
23231;DHT22;11784;49.818;8.632;2023-04-06T02:00:24;7.50;54.50
23231;DHT22;11784;49.818;8.632;2023-04-06T02:02:50;7.50;55.30
23231;DHT22;11784;49.818;8.632;2023-04-06T02:05:15;7.50;55.60
23231;DHT22;11784;49.818;8.632;2023-04-06T02:07:41;7.50;55.30
23231;DHT22;11784;49.818;8.632;2023-04-06T02:10:14;7.50;55.00
23231;DHT22;11784;49.818;8.632;2023-04-06T02:12:39;7.50;55.30
23231;DHT22;11784;49.818;8.632;2023-04-06T02:15:05;7.50;55.30
23231;DHT22;11784;49.818;8.632;2023-04-06T02:17:32;7.50;54.90
23231;DHT22;11784;49.818;8.632;2023-04-06T02:19:57;7.50;55.00
23231;DHT22;11784;49.818;8.632;2023-04-06T02:22:23;7.40;54.60
23231;DHT22;11784;49.818;8.632;2023-04-06T02:24:48;7.40;54.60
23231;DHT22;11784;49.818;8.632;2023-04-06T02:27:14;7.40;54.50
23231;DHT22;11784;49.818;8.632;2023-04-06T02:29:40;7.30;54.70
23231;DHT22;11784;49.818;8.632;2023-04-06T02:32:06;7.30;54.60
23231;DHT22;11784;49.818;8.632;2023-04-06T02:34:32;7.30;54.60
23231;DHT22;11784;49.818;8.632;2023-04-06T02:36:57;7.20;54.60
23231;DHT22;11784;49.818;8.632;2023-04-06T02:39:23;7.20;54.50
23231;DHT22;11784;49.818;8.632;2023-04-06T02:41:48;7.20;54.50
23231;DHT22;11784;49.818;8.632;2023-04-06T02:44:14;7.10;55.10
23231;DHT22;11784;49.818;8.632;2023-04-06T02:46:40;7.10;55.10
23231;DHT22;11784;49.818;8.632;2023-04-06T02:49:05;7.10;55.40
23231;DHT22;11784;49.818;8.632;2023-04-06T02:51:31;7.00;55.10
23231;DHT22;11784;49.818;8.632;2023-04-06T02:53:56;7.00;55.70
23231;DHT22;11784;49.818;8.632;2023-04-06T02:56:22;7.00;56.30
23231;DHT22;11784;49.818;8.632;2023-04-06T02:58:47;7.00;56.10
23231;DHT22;11784;49.818;8.632;2023-04-06T03:01:13;6.90;56.10
23231;DHT22;11784;49.818;8.632;2023-04-06T03:03:39;6.90;56.50
23231;DHT22;11784;49.818;8.632;2023-04-06T03:06:04;6.90;57.10
23231;DHT22;11784;49.818;8.632;2023-04-06T03:08:30;6.90;56.70
23231;DHT22;11784;49.818;8.632;2023-04-06T03:10:55;6.90;57.20
23231;DHT22;11784;49.818;8.632;2023-04-06T03:13:21;6.90;57.10
23231;DHT22;11784;49.818;8.632;2023-04-06T03:15:46;6.90;56.30
23231;DHT22;11784;49.818;8.632;2023-04-06T03:18:12;6.90;57.00
23231;DHT22;11784;49.818;8.632;2023-04-06T03:20:38;6.90;56.70
23231;DHT22;11784;49.818;8.632;2023-04-06T03:23:03;6.90;56.90
23231;DHT22;11784;49.818;8.632;2023-04-06T03:25:29;6.90;57.10
23231;DHT22;11784;49.818;8.632;2023-04-06T03:27:57;6.80;57.40
23231;DHT22;11784;49.818;8.632;2023-04-06T03:30:23;6.80;57.50
23231;DHT22;11784;49.818;8.632;2023-04-06T03:32:49;6.80;57.40
23231;DHT22;11784;49.818;8.632;2023-04-06T03:35:14;6.80;56.90
23231;DHT22;11784;49.818;8.632;2023-04-06T03:37:40;6.80;57.00
23231;DHT22;11784;49.818;8.632;2023-04-06T03:40:06;6.80;57.30
23231;DHT22;11784;49.818;8.632;2023-04-06T03:42:32;6.80;57.50
23231;DHT22;11784;49.818;8.632;2023-04-06T03:44:58;6.70;57.10
23231;DHT22;11784;49.818;8.632;2023-04-06T03:47:24;6.70;57.40
23231;DHT22;11784;49.818;8.632;2023-04-06T03:49:50;6.70;57.30
23231;DHT22;11784;49.818;8.632;2023-04-06T03:52:15;6.70;57.20
23231;DHT22;11784;49.818;8.632;2023-04-06T03:54:41;6.70;57.20
23231;DHT22;11784;49.818;8.632;2023-04-06T03:57:06;6.70;56.90
23231;DHT22;11784;49.818;8.632;2023-04-06T03:59:32;6.70;57.30
23231;DHT22;11784;49.818;8.632;2023-04-06T04:01:57;6.70;57.70
23231;DHT22;11784;49.818;8.632;2023-04-06T04:04:23;6.60;58.20
23231;DHT22;11784;49.818;8.632;2023-04-06T04:06:48;6.60;58.50
23231;DHT22;11784;49.818;8.632;2023-04-06T04:09:15;6.60;58.00
23231;DHT22;11784;49.818;8.632;2023-04-06T04:11:41;6.60;57.80
23231;DHT22;11784;49.818;8.632;2023-04-06T04:14:06;6.60;57.40
23231;DHT22;11784;49.818;8.632;2023-04-06T04:16:32;6.60;57.80
23231;DHT22;11784;49.818;8.632;2023-04-06T04:18:57;6.50;57.30
23231;DHT22;11784;49.818;8.632;2023-04-06T04:21:28;6.50;58.00
23231;DHT22;11784;49.818;8.632;2023-04-06T04:23:55;6.50;58.00
23231;DHT22;11784;49.818;8.632;2023-04-06T04:26:20;6.40;57.50
23231;DHT22;11784;49.818;8.632;2023-04-06T04:28:46;6.40;58.00
23231;DHT22;11784;49.818;8.632;2023-04-06T04:31:12;6.40;57.90
23231;DHT22;11784;49.818;8.632;2023-04-06T04:33:37;6.40;57.90
23231;DHT22;11784;49.818;8.632;2023-04-06T04:36:03;6.40;58.20
23231;DHT22;11784;49.818;8.632;2023-04-06T04:38:28;6.40;57.90
23231;DHT22;11784;49.818;8.632;2023-04-06T04:40:54;6.40;58.10
23231;DHT22;11784;49.818;8.632;2023-04-06T04:43:20;6.40;58.60
23231;DHT22;11784;49.818;8.632;2023-04-06T04:45:45;6.40;58.10
23231;DHT22;11784;49.818;8.632;2023-04-06T04:48:11;6.30;58.70
23231;DHT22;11784;49.818;8.632;2023-04-06T04:50:36;6.30;58.20
23231;DHT22;11784;49.818;8.632;2023-04-06T04:53:02;6.30;58.50
23231;DHT22;11784;49.818;8.632;2023-04-06T04:55:30;6.30;58.60
23231;DHT22;11784;49.818;8.632;2023-04-06T04:57:56;6.30;58.80
23231;DHT22;11784;49.818;8.632;2023-04-06T05:00:21;6.30;58.70
23231;DHT22;11784;49.818;8.632;2023-04-06T05:02:47;6.30;59.70
23231;DHT22;11784;49.818;8.632;2023-04-06T05:05:12;6.30;59.40
23231;DHT22;11784;49.818;8.632;2023-04-06T05:07:38;6.30;59.20
23231;DHT22;11784;49.818;8.632;2023-04-06T05:10:04;6.30;59.10
23231;DHT22;11784;49.818;8.632;2023-04-06T05:12:29;6.40;59.10
23231;DHT22;11784;49.818;8.632;2023-04-06T05:14:55;6.40;58.60
23231;DHT22;11784;49.818;8.632;2023-04-06T05:17:20;6.40;59.00
23231;DHT22;11784;49.818;8.632;2023-04-06T05:19:46;6.40;58.50
23231;DHT22;11784;49.818;8.632;2023-04-06T05:22:12;6.30;58.10
23231;DHT22;11784;49.818;8.632;2023-04-06T05:24:39;6.30;58.50
23231;DHT22;11784;49.818;8.632;2023-04-06T05:27:05;6.30;58.60
23231;DHT22;11784;49.818;8.632;2023-04-06T05:29:31;6.30;59.20
23231;DHT22;11784;49.818;8.632;2023-04-06T05:31:56;6.40;59.40
23231;DHT22;11784;49.818;8.632;2023-04-06T05:34:22;6.40;59.30
23231;DHT22;11784;49.818;8.632;2023-04-06T05:36:47;6.40;59.10
23231;DHT22;11784;49.818;8.632;2023-04-06T05:39:13;6.40;59.00
23231;DHT22;11784;49.818;8.632;2023-04-06T05:41:38;6.40;59.30
23231;DHT22;11784;49.818;8.632;2023-04-06T05:44:04;6.50;59.60
23231;DHT22;11784;49.818;8.632;2023-04-06T05:46:30;6.50;59.50
23231;DHT22;11784;49.818;8.632;2023-04-06T05:48:55;6.50;59.30
23231;DHT22;11784;49.818;8.632;2023-04-06T05:51:21;6.50;59.30
23231;DHT22;11784;49.818;8.632;2023-04-06T05:53:47;6.60;59.30
23231;DHT22;11784;49.818;8.632;2023-04-06T05:56:12;6.60;60.00
23231;DHT22;11784;49.818;8.632;2023-04-06T05:58:38;6.60;59.70
23231;DHT22;11784;49.818;8.632;2023-04-06T06:01:03;6.70;59.80
23231;DHT22;11784;49.818;8.632;2023-04-06T06:03:30;6.70;59.70
23231;DHT22;11784;49.818;8.632;2023-04-06T06:06:00;6.80;59.40
23231;DHT22;11784;49.818;8.632;2023-04-06T06:08:27;6.80;59.50
23231;DHT22;11784;49.818;8.632;2023-04-06T06:10:53;6.90;59.50
23231;DHT22;11784;49.818;8.632;2023-04-06T06:13:18;6.90;59.60
23231;DHT22;11784;49.818;8.632;2023-04-06T06:15:44;6.90;59.40
23231;DHT22;11784;49.818;8.632;2023-04-06T06:18:09;7.00;59.70
23231;DHT22;11784;49.818;8.632;2023-04-06T06:20:35;7.00;59.50
23231;DHT22;11784;49.818;8.632;2023-04-06T06:23:01;7.10;59.50
23231;DHT22;11784;49.818;8.632;2023-04-06T06:25:26;7.10;59.30
23231;DHT22;11784;49.818;8.632;2023-04-06T06:27:52;7.20;59.00
23231;DHT22;11784;49.818;8.632;2023-04-06T06:30:17;7.20;58.90
23231;DHT22;11784;49.818;8.632;2023-04-06T06:32:43;7.30;58.90
23231;DHT22;11784;49.818;8.632;2023-04-06T06:35:09;7.40;58.80
23231;DHT22;11784;49.818;8.632;2023-04-06T06:37:34;7.40;58.40
23231;DHT22;11784;49.818;8.632;2023-04-06T06:40:00;7.50;58.10
23231;DHT22;11784;49.818;8.632;2023-04-06T06:42:25;7.60;58.10
23231;DHT22;11784;49.818;8.632;2023-04-06T06:44:51;7.70;57.50
23231;DHT22;11784;49.818;8.632;2023-04-06T06:47:17;7.70;58.60
23231;DHT22;11784;49.818;8.632;2023-04-06T06:49:42;7.80;58.60
23231;DHT22;11784;49.818;8.632;2023-04-06T06:52:08;7.90;58.40
23231;DHT22;11784;49.818;8.632;2023-04-06T06:54:33;8.00;58.30
23231;DHT22;11784;49.818;8.632;2023-04-06T06:56:59;8.00;57.90
23231;DHT22;11784;49.818;8.632;2023-04-06T06:59:25;8.10;58.00
23231;DHT22;11784;49.818;8.632;2023-04-06T07:01:51;8.20;57.70
23231;DHT22;11784;49.818;8.632;2023-04-06T07:04:16;8.30;57.40
23231;DHT22;11784;49.818;8.632;2023-04-06T07:06:42;8.40;56.20
23231;DHT22;11784;49.818;8.632;2023-04-06T07:09:08;8.40;55.20
23231;DHT22;11784;49.818;8.632;2023-04-06T07:11:33;8.40;56.20
23231;DHT22;11784;49.818;8.632;2023-04-06T07:13:59;8.50;56.10
23231;DHT22;11784;49.818;8.632;2023-04-06T07:16:24;8.60;56.40
23231;DHT22;11784;49.818;8.632;2023-04-06T07:18:50;8.70;55.40
23231;DHT22;11784;49.818;8.632;2023-04-06T07:21:16;8.80;55.20
23231;DHT22;11784;49.818;8.632;2023-04-06T07:23:41;8.80;55.00
23231;DHT22;11784;49.818;8.632;2023-04-06T07:26:07;8.90;55.60
23231;DHT22;11784;49.818;8.632;2023-04-06T07:28:33;8.90;55.60
23231;DHT22;11784;49.818;8.632;2023-04-06T07:30:58;9.00;55.00
23231;DHT22;11784;49.818;8.632;2023-04-06T07:33:24;9.10;54.80
23231;DHT22;11784;49.818;8.632;2023-04-06T07:35:50;9.20;54.30
23231;DHT22;11784;49.818;8.632;2023-04-06T07:38:16;9.20;54.60
23231;DHT22;11784;49.818;8.632;2023-04-06T07:40:42;9.30;54.50
23231;DHT22;11784;49.818;8.632;2023-04-06T07:43:08;9.40;54.50
23231;DHT22;11784;49.818;8.632;2023-04-06T07:45:33;9.40;54.50
23231;DHT22;11784;49.818;8.632;2023-04-06T07:47:58;9.50;54.50
23231;DHT22;11784;49.818;8.632;2023-04-06T07:50:24;9.50;55.20
23231;DHT22;11784;49.818;8.632;2023-04-06T07:52:50;9.60;54.60
23231;DHT22;11784;49.818;8.632;2023-04-06T07:55:15;9.70;53.80
23231;DHT22;11784;49.818;8.632;2023-04-06T07:57:41;9.80;54.40
23231;DHT22;11784;49.818;8.632;2023-04-06T08:00:07;9.80;53.90
23231;DHT22;11784;49.818;8.632;2023-04-06T08:02:35;9.90;53.70
23231;DHT22;11784;49.818;8.632;2023-04-06T08:05:00;10.00;54.90
23231;DHT22;11784;49.818;8.632;2023-04-06T08:07:26;10.10;53.70
23231;DHT22;11784;49.818;8.632;2023-04-06T08:09:51;10.20;54.10
23231;DHT22;11784;49.818;8.632;2023-04-06T08:12:17;10.30;52.70
23231;DHT22;11784;49.818;8.632;2023-04-06T08:14:43;10.40;51.80
23231;DHT22;11784;49.818;8.632;2023-04-06T08:17:08;10.50;49.60
23231;DHT22;11784;49.818;8.632;2023-04-06T08:19:34;10.60;49.30
23231;DHT22;11784;49.818;8.632;2023-04-06T08:21:59;10.70;49.70
23231;DHT22;11784;49.818;8.632;2023-04-06T08:24:25;10.80;47.90
23231;DHT22;11784;49.818;8.632;2023-04-06T08:26:50;10.90;47.10
23231;DHT22;11784;49.818;8.632;2023-04-06T08:29:16;10.90;47.30
23231;DHT22;11784;49.818;8.632;2023-04-06T08:31:42;11.00;46.80
23231;DHT22;11784;49.818;8.632;2023-04-06T08:34:07;11.00;46.50
23231;DHT22;11784;49.818;8.632;2023-04-06T08:36:33;11.10;46.40
23231;DHT22;11784;49.818;8.632;2023-04-06T08:39:00;11.10;45.80
23231;DHT22;11784;49.818;8.632;2023-04-06T08:41:25;11.20;46.30
23231;DHT22;11784;49.818;8.632;2023-04-06T08:43:54;11.20;45.80
23231;DHT22;11784;49.818;8.632;2023-04-06T08:46:21;11.30;46.90
23231;DHT22;11784;49.818;8.632;2023-04-06T08:48:48;11.30;46.50
23231;DHT22;11784;49.818;8.632;2023-04-06T08:51:15;11.40;46.40
23231;DHT22;11784;49.818;8.632;2023-04-06T08:53:41;11.50;46.70
23231;DHT22;11784;49.818;8.632;2023-04-06T08:56:07;11.50;46.20
23231;DHT22;11784;49.818;8.632;2023-04-06T08:58:37;11.50;46.30
23231;DHT22;11784;49.818;8.632;2023-04-06T09:01:07;11.50;46.40
23231;DHT22;11784;49.818;8.632;2023-04-06T09:03:38;11.50;46.50
23231;DHT22;11784;49.818;8.632;2023-04-06T09:06:05;11.60;47.00
23231;DHT22;11784;49.818;8.632;2023-04-06T09:08:32;11.60;46.60
23231;DHT22;11784;49.818;8.632;2023-04-06T09:11:02;11.70;47.30
23231;DHT22;11784;49.818;8.632;2023-04-06T09:13:30;11.80;46.70
23231;DHT22;11784;49.818;8.632;2023-04-06T09:16:03;11.80;47.20
23231;DHT22;11784;49.818;8.632;2023-04-06T09:18:33;11.90;46.80
23231;DHT22;11784;49.818;8.632;2023-04-06T09:21:00;11.90;47.30
23231;DHT22;11784;49.818;8.632;2023-04-06T09:23:26;12.00;47.10
23231;DHT22;11784;49.818;8.632;2023-04-06T09:25:52;12.00;47.30
23231;DHT22;11784;49.818;8.632;2023-04-06T09:28:17;12.10;46.30
23231;DHT22;11784;49.818;8.632;2023-04-06T09:30:49;12.20;46.70
23231;DHT22;11784;49.818;8.632;2023-04-06T09:33:22;12.30;46.80
23231;DHT22;11784;49.818;8.632;2023-04-06T09:35:51;12.30;45.40
23231;DHT22;11784;49.818;8.632;2023-04-06T09:38:16;12.30;44.80
23231;DHT22;11784;49.818;8.632;2023-04-06T09:40:51;12.40;44.60
23231;DHT22;11784;49.818;8.632;2023-04-06T09:43:24;12.40;44.80
23231;DHT22;11784;49.818;8.632;2023-04-06T09:45:51;12.40;45.10
23231;DHT22;11784;49.818;8.632;2023-04-06T09:48:18;12.50;44.20
23231;DHT22;11784;49.818;8.632;2023-04-06T09:50:44;12.50;45.10
23231;DHT22;11784;49.818;8.632;2023-04-06T09:53:10;12.60;45.40
23231;DHT22;11784;49.818;8.632;2023-04-06T09:55:43;12.70;45.40
23231;DHT22;11784;49.818;8.632;2023-04-06T09:58:11;12.80;44.20
23231;DHT22;11784;49.818;8.632;2023-04-06T10:00:56;12.80;44.40
23231;DHT22;11784;49.818;8.632;2023-04-06T10:06:10;12.80;43.40
23231;DHT22;11784;49.818;8.632;2023-04-06T10:08:38;12.90;44.00
23231;DHT22;11784;49.818;8.632;2023-04-06T10:11:08;12.90;44.20
23231;DHT22;11784;49.818;8.632;2023-04-06T10:13:34;13.00;44.50
23231;DHT22;11784;49.818;8.632;2023-04-06T10:16:00;13.00;44.30
23231;DHT22;11784;49.818;8.632;2023-04-06T10:18:29;13.10;46.10
23231;DHT22;11784;49.818;8.632;2023-04-06T10:20:57;13.10;45.10
23231;DHT22;11784;49.818;8.632;2023-04-06T10:26:19;13.30;43.80
23231;DHT22;11784;49.818;8.632;2023-04-06T10:28:46;13.40;43.40
23231;DHT22;11784;49.818;8.632;2023-04-06T10:31:12;13.50;44.00
23231;DHT22;11784;49.818;8.632;2023-04-06T10:33:37;13.60;44.00
23231;DHT22;11784;49.818;8.632;2023-04-06T10:36:14;13.60;43.30
23231;DHT22;11784;49.818;8.632;2023-04-06T10:38:41;13.70;43.20
23231;DHT22;11784;49.818;8.632;2023-04-06T10:41:08;13.70;42.60
23231;DHT22;11784;49.818;8.632;2023-04-06T10:43:35;13.80;41.30
23231;DHT22;11784;49.818;8.632;2023-04-06T10:46:01;13.80;42.20
23231;DHT22;11784;49.818;8.632;2023-04-06T10:48:42;13.80;42.30
23231;DHT22;11784;49.818;8.632;2023-04-06T10:51:10;13.90;42.40
23231;DHT22;11784;49.818;8.632;2023-04-06T10:53:36;14.00;42.60
23231;DHT22;11784;49.818;8.632;2023-04-06T10:56:02;14.00;42.50
23231;DHT22;11784;49.818;8.632;2023-04-06T10:58:28;14.20;43.30
23231;DHT22;11784;49.818;8.632;2023-04-06T11:00:55;14.30;44.10
23231;DHT22;11784;49.818;8.632;2023-04-06T11:03:21;14.40;43.20
23231;DHT22;11784;49.818;8.632;2023-04-06T11:05:50;14.50;42.60
23231;DHT22;11784;49.818;8.632;2023-04-06T11:08:26;14.60;40.70
23231;DHT22;11784;49.818;8.632;2023-04-06T11:10:51;14.80;39.20
23231;DHT22;11784;49.818;8.632;2023-04-06T11:13:17;14.80;39.60
23231;DHT22;11784;49.818;8.632;2023-04-06T11:15:43;15.00;38.70
23231;DHT22;11784;49.818;8.632;2023-04-06T11:18:08;15.00;38.60
23231;DHT22;11784;49.818;8.632;2023-04-06T11:20:34;15.20;39.90
23231;DHT22;11784;49.818;8.632;2023-04-06T11:22:59;15.30;39.20
23231;DHT22;11784;49.818;8.632;2023-04-06T11:25:26;15.40;37.60
23231;DHT22;11784;49.818;8.632;2023-04-06T11:27:53;15.50;36.80
23231;DHT22;11784;49.818;8.632;2023-04-06T11:30:18;15.60;37.10
23231;DHT22;11784;49.818;8.632;2023-04-06T11:32:45;15.60;37.50
23231;DHT22;11784;49.818;8.632;2023-04-06T11:35:21;15.70;38.00
23231;DHT22;11784;49.818;8.632;2023-04-06T11:37:49;15.90;38.10
23231;DHT22;11784;49.818;8.632;2023-04-06T11:40:15;16.00;37.10
23231;DHT22;11784;49.818;8.632;2023-04-06T11:42:52;16.20;36.10
23231;DHT22;11784;49.818;8.632;2023-04-06T11:45:17;16.30;35.80
23231;DHT22;11784;49.818;8.632;2023-04-06T11:47:43;16.50;35.20
23231;DHT22;11784;49.818;8.632;2023-04-06T11:50:10;16.60;35.20
23231;DHT22;11784;49.818;8.632;2023-04-06T11:52:36;16.70;36.40
23231;DHT22;11784;49.818;8.632;2023-04-06T11:55:17;16.80;35.80
23231;DHT22;11784;49.818;8.632;2023-04-06T11:57:43;17.00;33.90
23231;DHT22;11784;49.818;8.632;2023-04-06T12:00:10;17.10;34.20
23231;DHT22;11784;49.818;8.632;2023-04-06T12:02:37;17.30;34.10
23231;DHT22;11784;49.818;8.632;2023-04-06T12:05:03;17.40;34.00
23231;DHT22;11784;49.818;8.632;2023-04-06T12:07:29;17.50;33.70
23231;DHT22;11784;49.818;8.632;2023-04-06T12:09:55;17.60;32.80
23231;DHT22;11784;49.818;8.632;2023-04-06T12:12:21;17.60;32.70
23231;DHT22;11784;49.818;8.632;2023-04-06T12:14:46;17.70;32.80
23231;DHT22;11784;49.818;8.632;2023-04-06T12:17:12;17.70;31.70
23231;DHT22;11784;49.818;8.632;2023-04-06T12:19:37;17.80;32.40
23231;DHT22;11784;49.818;8.632;2023-04-06T12:22:03;17.80;30.90
23231;DHT22;11784;49.818;8.632;2023-04-06T12:24:29;17.80;31.90
23231;DHT22;11784;49.818;8.632;2023-04-06T12:26:54;17.80;32.10
23231;DHT22;11784;49.818;8.632;2023-04-06T12:29:20;17.80;32.10
23231;DHT22;11784;49.818;8.632;2023-04-06T12:31:46;17.80;31.40
23231;DHT22;11784;49.818;8.632;2023-04-06T12:34:11;17.90;32.10
23231;DHT22;11784;49.818;8.632;2023-04-06T12:36:37;17.80;31.60
23231;DHT22;11784;49.818;8.632;2023-04-06T12:39:04;17.80;32.10
23231;DHT22;11784;49.818;8.632;2023-04-06T12:41:29;17.80;30.50
23231;DHT22;11784;49.818;8.632;2023-04-06T12:43:55;17.80;31.30
23231;DHT22;11784;49.818;8.632;2023-04-06T12:46:21;17.80;31.00
23231;DHT22;11784;49.818;8.632;2023-04-06T12:48:47;17.80;31.10
23231;DHT22;11784;49.818;8.632;2023-04-06T12:51:13;17.90;32.10
23231;DHT22;11784;49.818;8.632;2023-04-06T12:53:39;17.90;31.20
23231;DHT22;11784;49.818;8.632;2023-04-06T12:56:16;17.90;31.60
23231;DHT22;11784;49.818;8.632;2023-04-06T12:58:43;18.00;31.20
23231;DHT22;11784;49.818;8.632;2023-04-06T13:01:09;18.00;32.20
23231;DHT22;11784;49.818;8.632;2023-04-06T13:03:34;18.10;32.50
23231;DHT22;11784;49.818;8.632;2023-04-06T13:06:01;18.10;31.20
23231;DHT22;11784;49.818;8.632;2023-04-06T13:08:27;18.20;31.00
23231;DHT22;11784;49.818;8.632;2023-04-06T13:10:53;18.30;32.10
23231;DHT22;11784;49.818;8.632;2023-04-06T13:13:23;18.30;30.60
23231;DHT22;11784;49.818;8.632;2023-04-06T13:15:50;18.40;31.10
23231;DHT22;11784;49.818;8.632;2023-04-06T13:18:16;18.40;31.90
23231;DHT22;11784;49.818;8.632;2023-04-06T13:20:42;18.50;31.50
23231;DHT22;11784;49.818;8.632;2023-04-06T13:23:08;18.50;31.50
23231;DHT22;11784;49.818;8.632;2023-04-06T13:25:34;18.60;31.90
23231;DHT22;11784;49.818;8.632;2023-04-06T13:27:59;18.70;31.80
23231;DHT22;11784;49.818;8.632;2023-04-06T13:30:26;18.80;31.40
23231;DHT22;11784;49.818;8.632;2023-04-06T13:32:52;18.90;30.20
23231;DHT22;11784;49.818;8.632;2023-04-06T13:35:18;19.00;30.50
23231;DHT22;11784;49.818;8.632;2023-04-06T13:37:44;19.20;30.90
23231;DHT22;11784;49.818;8.632;2023-04-06T13:40:10;19.50;29.30
23231;DHT22;11784;49.818;8.632;2023-04-06T13:42:35;19.70;29.60
23231;DHT22;11784;49.818;8.632;2023-04-06T13:45:02;19.90;30.00
23231;DHT22;11784;49.818;8.632;2023-04-06T13:47:27;19.90;28.00
23231;DHT22;11784;49.818;8.632;2023-04-06T13:49:53;19.90;29.20
23231;DHT22;11784;49.818;8.632;2023-04-06T13:52:19;19.90;28.40
23231;DHT22;11784;49.818;8.632;2023-04-06T13:54:45;19.90;29.20
23231;DHT22;11784;49.818;8.632;2023-04-06T13:57:11;19.90;29.10
23231;DHT22;11784;49.818;8.632;2023-04-06T13:59:38;20.00;28.40
23231;DHT22;11784;49.818;8.632;2023-04-06T14:02:05;20.10;28.10
23231;DHT22;11784;49.818;8.632;2023-04-06T14:04:31;20.10;27.50
23231;DHT22;11784;49.818;8.632;2023-04-06T14:06:59;20.10;28.50
23231;DHT22;11784;49.818;8.632;2023-04-06T14:09:24;20.00;28.30
23231;DHT22;11784;49.818;8.632;2023-04-06T14:11:50;20.10;29.70
23231;DHT22;11784;49.818;8.632;2023-04-06T14:14:16;20.20;28.90
23231;DHT22;11784;49.818;8.632;2023-04-06T14:16:42;20.40;28.70
23231;DHT22;11784;49.818;8.632;2023-04-06T14:19:16;20.50;28.50
23231;DHT22;11784;49.818;8.632;2023-04-06T14:21:43;20.50;28.50
23231;DHT22;11784;49.818;8.632;2023-04-06T14:24:09;20.60;27.70
23231;DHT22;11784;49.818;8.632;2023-04-06T14:26:35;20.50;27.40
23231;DHT22;11784;49.818;8.632;2023-04-06T14:29:02;20.40;27.30
23231;DHT22;11784;49.818;8.632;2023-04-06T14:31:28;20.30;27.60
23231;DHT22;11784;49.818;8.632;2023-04-06T14:33:54;20.20;27.60
23231;DHT22;11784;49.818;8.632;2023-04-06T14:36:19;20.10;28.10
23231;DHT22;11784;49.818;8.632;2023-04-06T14:38:45;20.00;28.10
23231;DHT22;11784;49.818;8.632;2023-04-06T14:41:18;19.90;28.30
23231;DHT22;11784;49.818;8.632;2023-04-06T14:43:45;19.90;29.40
23231;DHT22;11784;49.818;8.632;2023-04-06T14:46:10;19.80;28.60
23231;DHT22;11784;49.818;8.632;2023-04-06T14:48:36;19.80;28.30
23231;DHT22;11784;49.818;8.632;2023-04-06T14:51:02;19.80;28.10
23231;DHT22;11784;49.818;8.632;2023-04-06T14:53:28;19.90;27.80
23231;DHT22;11784;49.818;8.632;2023-04-06T14:55:54;20.00;28.10
23231;DHT22;11784;49.818;8.632;2023-04-06T14:58:22;20.00;28.60
23231;DHT22;11784;49.818;8.632;2023-04-06T15:00:48;20.10;28.20
23231;DHT22;11784;49.818;8.632;2023-04-06T15:03:15;20.20;29.30
23231;DHT22;11784;49.818;8.632;2023-04-06T15:05:40;20.10;28.40
23231;DHT22;11784;49.818;8.632;2023-04-06T15:08:06;20.00;28.50
23231;DHT22;11784;49.818;8.632;2023-04-06T15:10:34;19.90;29.10
23231;DHT22;11784;49.818;8.632;2023-04-06T15:13:00;19.70;28.80
23231;DHT22;11784;49.818;8.632;2023-04-06T15:15:25;19.60;28.60
23231;DHT22;11784;49.818;8.632;2023-04-06T15:17:51;19.40;28.60
23231;DHT22;11784;49.818;8.632;2023-04-06T15:20:17;19.20;28.40
23231;DHT22;11784;49.818;8.632;2023-04-06T15:22:42;19.00;28.40
23231;DHT22;11784;49.818;8.632;2023-04-06T15:25:08;18.90;28.70
23231;DHT22;11784;49.818;8.632;2023-04-06T15:27:33;18.60;28.80
23231;DHT22;11784;49.818;8.632;2023-04-06T15:29:59;18.50;29.60
23231;DHT22;11784;49.818;8.632;2023-04-06T15:32:25;18.40;30.30
23231;DHT22;11784;49.818;8.632;2023-04-06T15:34:52;18.30;30.20
23231;DHT22;11784;49.818;8.632;2023-04-06T15:37:18;18.10;29.30
23231;DHT22;11784;49.818;8.632;2023-04-06T15:39:43;18.00;30.00